Time;durP1;ratioP1;P1;durP2;ratioP2;P2;SDS_P1;SDS_P2;PMS_P1;PMS_P2;Temp;Humidity;BMP_temperature;BMP_pressure;BME280_temperature;BME280_humidity;BME280_pressure;Samples;Min_cycle;Max_cycle;Signal;HPM_P1;HPM_P2
2023/04/07 00:00:49;;;;;;;13.93;12.53;;;4.30;1.00;;;;;;6230930;23;20248;-79
2023/04/07 00:03:15;;;;;;;14.07;12.67;;;4.30;1.00;;;;;;6207197;23;20172;-79
2023/04/07 00:05:40;;;;;;;14.97;12.07;;;4.30;1.00;;;;;;6231116;23;20241;-79
2023/04/07 00:08:06;;;;;;;13.83;12.27;;;4.40;1.00;;;;;;6207077;23;20150;-79
2023/04/07 00:10:32;;;;;;;15.63;11.90;;;4.40;1.00;;;;;;6230510;23;20186;-79
2023/04/07 00:12:57;;;;;;;14.53;12.40;;;4.40;1.00;;;;;;6207162;23;20170;-80
2023/04/07 00:15:23;;;;;;;13.50;12.10;;;4.40;1.00;;;;;;6207145;23;20232;-79
2023/04/07 00:17:48;;;;;;;14.17;12.67;;;4.30;1.00;;;;;;6206589;23;20177;-79
2023/04/07 00:20:14;;;;;;;13.83;12.33;;;4.30;1.00;;;;;;6230443;23;20290;-79
2023/04/07 00:22:40;;;;;;;12.80;11.50;;;4.20;1.00;;;;;;6206906;23;20154;-79
2023/04/07 00:25:06;;;;;;;13.90;12.50;;;4.20;1.00;;;;;;6206649;23;20208;-79
2023/04/07 00:27:31;;;;;;;14.30;12.73;;;4.20;1.00;;;;;;6230377;22;20158;-79
2023/04/07 00:29:57;;;;;;;13.27;11.97;;;4.10;1.00;;;;;;6206176;23;20225;-79
2023/04/07 00:32:22;;;;;;;14.27;12.80;;;4.10;1.00;;;;;;6207000;23;20154;-79
2023/04/07 00:34:48;;;;;;;15.87;12.60;;;4.10;1.00;;;;;;6230016;23;20158;-79
2023/04/07 00:37:13;;;;;;;12.43;11.23;;;4.10;1.00;;;;;;6230216;23;20217;-79
2023/04/07 00:39:39;;;;;;;12.77;11.47;;;4.10;1.00;;;;;;6229989;23;20177;-79
2023/04/07 00:42:05;;;;;;;13.67;11.17;;;4.00;1.00;;;;;;6230776;23;20163;-80
2023/04/07 00:44:31;;;;;;;13.87;12.40;;;4.00;1.00;;;;;;6207089;23;20153;-79
2023/04/07 00:46:57;;;;;;;14.57;12.10;;;4.00;1.00;;;;;;6207026;23;20208;-80
2023/04/07 00:49:23;;;;;;;13.53;12.23;;;4.00;1.00;;;;;;6206871;23;20626;-79
2023/04/07 00:51:48;;;;;;;13.47;12.03;;;4.00;1.00;;;;;;6206818;23;20158;-80
2023/04/07 00:54:14;;;;;;;13.07;11.67;;;3.90;1.00;;;;;;6206979;23;20555;-79
2023/04/07 00:56:40;;;;;;;14.03;12.53;;;4.00;1.00;;;;;;6206610;23;20184;-79
2023/04/07 00:59:05;;;;;;;13.00;11.67;;;4.00;1.00;;;;;;6230166;23;20171;-79
2023/04/07 01:01:42;;;;;;;13.03;11.63;;;3.90;1.00;;;;;;6206904;23;20150;-79
2023/04/07 01:04:48;;;;;;;13.03;11.63;;;3.90;1.00;;;;;;6207145;23;20506;-79
2023/04/07 01:07:31;;;;;;;14.13;11.07;;;3.90;1.00;;;;;;6207009;23;20578;-79
2023/04/07 01:10:03;;;;;;;15.43;12.00;;;3.90;1.00;;;;;;6206423;23;20170;-79
2023/04/07 01:12:35;;;;;;;13.50;12.10;;;3.90;1.00;;;;;;6206729;22;20802;-79
2023/04/07 01:15:09;;;;;;;14.23;12.23;;;3.90;1.00;;;;;;6206863;23;20149;-79
2023/04/07 01:17:42;;;;;;;12.73;11.40;;;3.70;1.00;;;;;;6206289;23;20176;-79
2023/04/07 01:20:11;;;;;;;14.07;11.93;;;3.70;1.00;;;;;;6205981;23;20197;-79
2023/04/07 01:22:42;;;;;;;15.13;12.50;;;3.60;1.00;;;;;;6230107;23;20190;-79
2023/04/07 01:25:41;;;;;;;13.03;11.10;;;3.70;1.00;;;;;;6206558;23;20135;-79
2023/04/07 01:28:32;;;;;;;14.20;12.07;;;3.70;1.00;;;;;;6206715;23;20159;-79
2023/04/07 01:31:00;;;;;;;13.30;12.00;;;3.70;1.00;;;;;;6206631;23;20146;-79
2023/04/07 01:33:28;;;;;;;13.27;11.70;;;3.60;1.00;;;;;;6206691;23;20241;-79
2023/04/07 01:35:57;;;;;;;13.93;12.20;;;3.60;1.00;;;;;;6206819;23;20157;-79
2023/04/07 01:38:24;;;;;;;12.97;11.17;;;3.60;1.00;;;;;;6229574;23;20192;-79
2023/04/07 01:40:50;;;;;;;13.03;11.17;;;3.60;1.00;;;;;;6206324;23;20170;-79
2023/04/07 01:43:17;;;;;;;12.43;11.23;;;3.60;1.00;;;;;;6206979;23;20163;-79
2023/04/07 01:45:43;;;;;;;13.17;10.90;;;3.70;1.00;;;;;;6230315;23;20978;-78
2023/04/07 01:48:10;;;;;;;12.70;11.33;;;3.70;1.00;;;;;;6230202;23;20162;-79
2023/04/07 01:50:37;;;;;;;11.60;10.50;;;3.60;1.00;;;;;;6229579;23;20210;-80
2023/04/07 01:53:04;;;;;;;13.20;11.90;;;3.50;1.00;;;;;;6206688;23;21076;-79
2023/04/07 01:55:31;;;;;;;14.07;12.10;;;3.50;1.00;;;;;;6228619;23;20628;-79
2023/04/07 01:57:57;;;;;;;12.57;11.37;;;3.50;1.00;;;;;;6203882;23;20217;-79
2023/04/07 02:00:22;;;;;;;13.10;11.80;;;3.50;1.00;;;;;;6204444;23;20170;-79
2023/04/07 02:02:53;;;;;;;12.53;11.23;;;3.50;1.00;;;;;;6204833;23;20537;-79
2023/04/07 02:05:21;;;;;;;13.60;11.57;;;3.60;1.00;;;;;;6204843;23;20218;-79
2023/04/07 02:07:58;;;;;;;13.93;12.53;;;3.50;1.00;;;;;;6204927;23;20555;-79
2023/04/07 02:10:26;;;;;;;15.17;12.80;;;3.10;1.00;;;;;;6228934;23;20181;-79
2023/04/07 02:12:52;;;;;;;15.60;14.00;;;2.90;1.00;;;;;;6206908;23;20177;-79
2023/04/07 02:15:18;;;;;;;15.10;13.60;;;2.80;1.00;;;;;;6206859;23;20181;-78
2023/04/07 02:17:48;;;;;;;14.60;13.17;;;2.70;1.00;;;;;;6206382;23;21037;-79
2023/04/07 02:20:15;;;;;;;16.73;14.53;;;2.60;1.00;;;;;;6206291;23;20170;-79
2023/04/07 02:22:41;;;;;;;16.70;14.73;;;2.40;1.00;;;;;;6206500;23;20151;-79
2023/04/07 02:25:26;;;;;;;15.67;13.70;;;2.30;1.00;;;;;;6206012;23;20174;-79
2023/04/07 02:27:53;;;;;;;15.33;13.80;;;2.30;1.00;;;;;;6206949;23;20533;-79
2023/04/07 02:30:19;;;;;;;17.37;15.50;;;2.10;1.00;;;;;;6206496;23;20186;-79
2023/04/07 02:32:45;;;;;;;16.77;15.07;;;2.00;1.00;;;;;;6206757;23;20212;-79
2023/04/07 02:35:11;;;;;;;16.57;14.87;;;1.90;1.00;;;;;;6232326;23;20617;-79
2023/04/07 02:37:37;;;;;;;18.77;15.50;;;1.90;1.00;;;;;;6208313;23;20185;-79
2023/04/07 02:40:04;;;;;;;17.23;14.83;;;1.80;1.00;;;;;;6231577;23;20257;-79
2023/04/07 02:42:30;;;;;;;17.10;15.23;;;1.80;1.00;;;;;;6208386;23;20537;-79
2023/04/07 02:44:56;;;;;;;17.00;14.87;;;1.60;1.00;;;;;;6207785;23;20229;-79
2023/04/07 02:47:22;;;;;;;17.27;15.13;;;1.80;1.00;;;;;;6231608;23;20162;-79
2023/04/07 02:49:48;;;;;;;17.30;15.50;;;1.80;1.00;;;;;;6207596;23;20652;-79
2023/04/07 02:52:13;;;;;;;15.73;14.13;;;1.90;1.00;;;;;;6208185;23;20154;-78
2023/04/07 02:54:39;;;;;;;16.30;14.60;;;2.10;1.00;;;;;;6231622;23;20294;-79
2023/04/07 02:57:04;;;;;;;16.63;14.87;;;2.20;1.00;;;;;;6208040;23;20185;-78
2023/04/07 02:59:30;;;;;;;17.00;15.23;;;2.10;1.00;;;;;;6230704;23;20170;-79
2023/04/07 03:01:55;;;;;;;15.90;14.33;;;2.10;1.00;;;;;;6208187;23;20154;-79
2023/04/07 03:04:21;;;;;;;17.67;15.20;;;2.10;1.00;;;;;;6231427;23;20233;-79
2023/04/07 03:06:46;;;;;;;16.20;14.50;;;2.00;1.00;;;;;;6208075;23;20216;-78
2023/04/07 03:09:13;;;;;;;15.83;14.23;;;2.00;1.00;;;;;;6231062;23;20209;-79
2023/04/07 03:11:38;;;;;;;15.03;13.53;;;1.90;1.00;;;;;;6207744;23;20155;-79
2023/04/07 03:14:04;;;;;;;16.53;14.77;;;1.80;1.00;;;;;;6207628;23;20173;-79
2023/04/07 03:16:29;;;;;;;17.03;15.27;;;1.70;1.00;;;;;;6231468;23;20251;-79
2023/04/07 03:18:55;;;;;;;16.07;13.87;;;1.80;1.00;;;;;;6231113;23;20234;-79
2023/04/07 03:21:20;;;;;;;16.83;14.73;;;1.80;1.00;;;;;;6207780;23;20154;-78
2023/04/07 03:23:46;;;;;;;16.67;14.97;;;1.70;1.00;;;;;;6207813;23;20158;-79
2023/04/07 03:26:11;;;;;;;15.93;14.33;;;1.70;1.00;;;;;;6207735;23;20175;-79
2023/04/07 03:28:37;;;;;;;16.57;14.07;;;1.70;1.00;;;;;;6231259;23;20177;-79
2023/04/07 03:31:02;;;;;;;16.90;15.20;;;1.60;1.00;;;;;;6207580;23;20158;-79
2023/04/07 03:33:28;;;;;;;16.57;14.27;;;1.60;1.00;;;;;;6207672;23;20146;-79
2023/04/07 03:35:53;;;;;;;17.33;15.60;;;1.60;1.00;;;;;;6207152;23;20366;-79
2023/04/07 03:38:20;;;;;;;15.77;14.17;;;1.60;1.00;;;;;;6206959;23;20245;-79
2023/04/07 03:40:45;;;;;;;16.43;14.07;;;1.70;1.00;;;;;;6230779;23;20893;-79
2023/04/07 03:43:14;;;;;;;15.67;14.07;;;1.60;1.00;;;;;;6231440;23;20155;-79
2023/04/07 03:45:40;;;;;;;16.50;14.87;;;1.60;1.00;;;;;;6208297;23;20200;-79
2023/04/07 03:48:09;;;;;;;19.53;14.83;;;1.60;1.00;;;;;;6207819;23;20158;-79
2023/04/07 03:50:35;;;;;;;16.80;14.63;;;1.70;1.00;;;;;;6207474;23;20178;-79
2023/04/07 03:53:00;;;;;;;16.00;14.47;;;1.80;1.00;;;;;;6231691;23;20173;-79
2023/04/07 03:55:26;;;;;;;15.17;13.63;;;1.60;1.00;;;;;;6231033;23;20237;-79
2023/04/07 03:57:52;;;;;;;15.17;13.57;;;1.70;1.00;;;;;;6231261;23;20182;-79
2023/04/07 04:00:18;;;;;;;14.73;13.03;;;1.80;1.00;;;;;;6207739;23;20228;-79
2023/04/07 04:02:43;;;;;;;16.10;14.27;;;1.80;1.00;;;;;;6207577;23;20174;-79
2023/04/07 04:05:09;;;;;;;15.03;13.30;;;1.80;1.00;;;;;;6231151;23;20506;-78
2023/04/07 04:07:35;;;;;;;15.83;14.13;;;1.70;1.00;;;;;;6231275;23;20169;-79
2023/04/07 04:10:00;;;;;;;17.00;15.43;;;1.90;1.00;;;;;;6229108;22;20378;-78
2023/04/07 04:12:26;;;;;;;16.43;14.47;;;1.90;1.00;;;;;;6207396;23;20241;-79
2023/04/07 04:14:52;;;;;;;14.77;13.30;;;1.80;1.00;;;;;;6207631;23;20151;-79
2023/04/07 04:17:17;;;;;;;14.80;13.30;;;1.60;1.00;;;;;;6207618;23;20244;-79
2023/04/07 04:19:43;;;;;;;15.70;13.97;;;1.80;1.00;;;;;;6206681;23;20229;-79
2023/04/07 04:22:08;;;;;;;15.93;13.43;;;1.70;1.00;;;;;;6231006;23;20158;-79
2023/04/07 04:24:34;;;;;;;14.43;12.80;;;1.70;1.00;;;;;;6207403;23;20256;-79
2023/04/07 04:27:00;;;;;;;14.93;13.40;;;1.70;1.00;;;;;;6207428;23;20159;-79
2023/04/07 04:29:26;;;;;;;14.70;13.17;;;1.60;1.00;;;;;;6230414;23;20201;-79
2023/04/07 04:31:52;;;;;;;15.07;13.47;;;1.60;1.00;;;;;;6231203;23;20162;-79
2023/04/07 04:34:17;;;;;;;15.67;14.00;;;1.60;1.00;;;;;;6230747;23;20162;-79
2023/04/07 04:36:43;;;;;;;14.13;12.63;;;1.60;1.00;;;;;;6207483;23;20209;-78
2023/04/07 04:39:08;;;;;;;15.70;13.57;;;1.50;1.00;;;;;;6206848;23;20178;-79
2023/04/07 04:41:34;;;;;;;15.57;13.93;;;1.50;1.00;;;;;;6207346;23;20205;-78
2023/04/07 04:44:00;;;;;;;17.43;14.47;;;1.30;1.00;;;;;;6207466;23;20217;-79
2023/04/07 04:46:25;;;;;;;15.53;13.87;;;1.30;1.00;;;;;;6207746;23;20158;-79
2023/04/07 04:48:52;;;;;;;16.40;13.70;;;1.30;1.00;;;;;;6230309;23;20182;-79
2023/04/07 04:51:19;;;;;;;15.60;13.93;;;1.30;1.00;;;;;;6207312;23;20531;-79
2023/04/07 04:53:44;;;;;;;15.90;14.10;;;1.30;1.00;;;;;;6231063;23;20593;-79
2023/04/07 04:56:10;;;;;;;16.60;14.30;;;1.20;1.00;;;;;;6206858;23;20150;-78
2023/04/07 04:58:39;;;;;;;16.07;14.33;;;1.00;1.00;;;;;;6207105;23;20154;-79
2023/04/07 05:01:04;;;;;;;17.07;14.30;;;0.80;1.00;;;;;;6207552;23;20162;-79
2023/04/07 05:03:30;;;;;;;15.97;14.00;;;0.80;1.00;;;;;;6230809;23;20158;-80
2023/04/07 05:05:56;;;;;;;15.90;13.67;;;1.00;1.00;;;;;;6207472;23;20524;-79
2023/04/07 05:08:21;;;;;;;16.57;14.10;;;1.20;1.00;;;;;;6207229;23;20154;-79
2023/04/07 05:10:47;;;;;;;15.87;13.83;;;1.30;1.00;;;;;;6206666;23;20185;-79
2023/04/07 05:13:12;;;;;;;17.57;14.27;;;1.40;1.00;;;;;;6230167;23;20257;-79
2023/04/07 05:15:40;;;;;;;14.73;13.23;;;1.50;1.00;;;;;;6230556;23;20212;-79
2023/04/07 05:18:05;;;;;;;14.87;13.37;;;1.50;1.00;;;;;;6206549;23;20178;-79
2023/04/07 05:20:31;;;;;;;14.33;12.37;;;1.50;1.00;;;;;;6230243;23;20183;-79
2023/04/07 05:22:57;;;;;;;13.53;12.07;;;1.70;1.00;;;;;;6207112;23;20150;-79
2023/04/07 05:25:22;;;;;;;14.23;12.67;;;1.80;1.00;;;;;;6206336;23;20153;-79
2023/04/07 05:27:48;;;;;;;13.50;12.13;;;1.80;1.00;;;;;;6230225;23;20158;-79
2023/04/07 05:30:14;;;;;;;13.57;12.07;;;1.90;1.00;;;;;;6206142;23;20193;-79
2023/04/07 05:32:39;;;;;;;13.20;11.87;;;1.90;1.00;;;;;;6206260;23;20177;-79
2023/04/07 05:35:05;;;;;;;13.90;12.50;;;2.00;1.00;;;;;;6206560;23;20212;-79
2023/04/07 05:37:31;;;;;;;14.03;12.60;;;2.00;1.00;;;;;;6206298;23;20162;-79
2023/04/07 05:39:56;;;;;;;14.93;12.70;;;2.10;1.00;;;;;;6229791;23;20610;-79
2023/04/07 05:42:22;;;;;;;13.80;12.07;;;2.20;1.00;;;;;;6206567;23;20494;-79
2023/04/07 05:44:48;;;;;;;13.93;12.40;;;2.30;1.00;;;;;;6206508;23;20146;-80
2023/04/07 05:47:13;;;;;;;13.37;11.83;;;2.50;1.00;;;;;;6206786;23;20624;-79
2023/04/07 05:49:44;;;;;;;13.17;11.40;;;2.60;1.00;;;;;;6206236;23;20178;-79
2023/04/07 05:52:11;;;;;;;11.50;10.30;;;2.80;1.00;;;;;;6230133;23;20170;-79
2023/04/07 05:54:36;;;;;;;11.57;10.40;;;3.00;1.00;;;;;;6206720;23;20158;-78
2023/04/07 05:57:02;;;;;;;12.37;11.07;;;3.10;1.00;;;;;;6206907;23;20196;-79
2023/04/07 05:59:28;;;;;;;12.77;10.80;;;3.30;1.00;;;;;;6204283;23;20298;-79
2023/04/07 06:01:53;;;;;;;11.47;10.27;;;3.50;1.00;;;;;;6230281;23;20563;-79
2023/04/07 06:04:19;;;;;;;12.60;10.30;;;3.60;1.00;;;;;;6206326;23;20153;-79
2023/04/07 06:06:45;;;;;;;12.10;10.73;;;3.80;1.00;;;;;;6232801;23;20154;-80
2023/04/07 06:09:10;;;;;;;11.27;9.93;;;3.90;1.00;;;;;;6239202;22;20257;-80
2023/04/07 06:11:36;;;;;;;11.33;10.23;;;4.00;1.00;;;;;;6215324;23;20658;-80
2023/04/07 06:14:02;;;;;;;10.63;9.57;;;4.20;1.00;;;;;;6234553;22;20247;-79
2023/04/07 06:16:27;;;;;;;11.57;9.30;;;4.30;1.00;;;;;;6207603;23;20185;-79
2023/04/07 06:18:53;;;;;;;10.47;9.37;;;4.40;1.00;;;;;;6230857;23;20174;-79
2023/04/07 06:21:18;;;;;;;10.27;9.23;;;4.50;1.00;;;;;;6232179;23;20181;-79
2023/04/07 06:23:44;;;;;;;10.33;8.90;;;4.70;1.00;;;;;;6230833;23;20158;-80
2023/04/07 06:26:10;;;;;;;10.97;9.30;;;4.90;1.00;;;;;;6208166;23;20309;-80
2023/04/07 06:28:36;;;;;;;11.17;9.10;;;5.10;1.00;;;;;;6207546;23;20499;-80
2023/04/07 06:31:02;;;;;;;10.00;8.87;;;5.30;1.00;;;;;;6205789;23;20221;-80
2023/04/07 06:33:27;;;;;;;9.03;8.13;;;5.50;1.00;;;;;;6206511;23;20222;-79
2023/04/07 06:35:53;;;;;;;10.87;9.03;;;5.60;1.00;;;;;;6231539;23;20184;-80
2023/04/07 06:38:19;;;;;;;9.97;8.93;;;5.70;1.00;;;;;;6208747;23;20178;-80
2023/04/07 06:40:44;;;;;;;12.03;9.10;;;5.80;1.00;;;;;;6232164;23;20182;-79
2023/04/07 06:43:10;;;;;;;9.20;8.30;;;5.90;1.00;;;;;;6208662;23;20617;-80
2023/04/07 06:45:35;;;;;;;11.63;8.33;;;5.90;1.00;;;;;;6208302;23;20507;-79
2023/04/07 06:48:01;;;;;;;9.43;8.37;;;5.90;1.00;;;;;;6232119;23;20169;-80
2023/04/07 06:50:27;;;;;;;8.90;7.50;;;6.10;1.00;;;;;;6231590;23;20257;-80
2023/04/07 06:52:52;;;;;;;9.10;8.13;;;6.80;1.00;;;;;;6208536;23;20154;-80
2023/04/07 06:55:18;;;;;;;8.97;7.93;;;7.80;1.00;;;;;;6231692;23;20158;-80
2023/04/07 06:57:43;;;;;;;8.17;7.37;;;8.10;1.00;;;;;;6231921;23;20178;-80
2023/04/07 07:00:09;;;;;;;8.77;7.97;;;8.20;1.00;;;;;;6231678;23;20174;-84
2023/04/07 07:02:35;;;;;;;9.20;7.27;;;8.90;1.00;;;;;;6208725;23;20166;-79
2023/04/07 07:05:02;;;;;;;8.80;7.90;;;8.90;1.00;;;;;;6208608;23;20162;-80
2023/04/07 07:07:28;;;;;;;9.83;8.67;;;7.30;1.00;;;;;;6232590;23;20158;-81
2023/04/07 07:09:54;;;;;;;10.03;7.97;;;6.80;1.00;;;;;;6232146;23;20268;-81
2023/04/07 07:12:19;;;;;;;8.97;8.07;;;6.50;1.00;;;;;;6232688;23;20170;-80
2023/04/07 07:14:45;;;;;;;10.70;8.33;;;6.50;1.00;;;;;;6207900;23;20161;-79
2023/04/07 07:17:10;;;;;;;8.60;7.80;;;6.40;1.00;;;;;;6207976;23;20189;-80
2023/04/07 07:19:36;;;;;;;9.17;8.00;;;6.40;1.00;;;;;;6207496;23;20178;-80
2023/04/07 07:22:03;;;;;;;9.77;8.57;;;6.40;1.00;;;;;;6231628;23;20189;-79
2023/04/07 07:24:29;;;;;;;9.60;7.87;;;6.60;1.00;;;;;;6207973;23;20150;-80
2023/04/07 07:26:56;;;;;;;9.60;8.60;;;6.60;1.00;;;;;;6208026;23;20752;-80
2023/04/07 07:29:21;;;;;;;10.20;8.40;;;6.60;1.00;;;;;;6207400;23;21166;-80
2023/04/07 07:31:47;;;;;;;10.37;8.63;;;6.60;1.00;;;;;;6208219;23;20233;-80
2023/04/07 07:34:13;;;;;;;10.53;8.90;;;6.70;1.00;;;;;;6207608;23;20170;-80
2023/04/07 07:36:38;;;;;;;10.43;9.37;;;6.80;1.00;;;;;;6208134;23;20254;-83
2023/04/07 07:39:04;;;;;;;9.93;8.13;;;6.90;1.00;;;;;;6231523;23;20184;-83
2023/04/07 07:41:30;;;;;;;9.00;8.10;;;7.00;1.00;;;;;;6230343;23;20583;-83
2023/04/07 07:43:56;;;;;;;10.63;9.00;;;7.00;1.00;;;;;;6231472;23;20158;-80
2023/04/07 07:46:24;;;;;;;9.77;8.50;;;6.90;1.00;;;;;;6207392;23;20182;-84
2023/04/07 14:58:45;;;;;;;6.10;4.80;;;12.40;1.00;;;;;;6234587;22;20214;-84
2023/04/07 15:01:11;;;;;;;5.85;5.28;;;13.40;1.00;;;;;;6206004;23;21075;-83
2023/04/07 15:03:37;;;;;;;5.78;4.85;;;12.30;1.00;;;;;;6206735;23;20174;-84
2023/04/07 15:06:07;;;;;;;4.88;4.38;;;12.50;1.00;;;;;;6207998;23;20146;-82
2023/04/07 15:08:33;;;;;;;4.70;4.20;;;12.40;1.00;;;;;;6207668;23;20626;-83
2023/04/07 15:10:58;;;;;;;5.32;4.53;;;13.00;1.00;;;;;;6207789;23;20150;-84
2023/04/07 15:13:24;;;;;;;6.25;5.00;;;12.40;1.00;;;;;;6206574;23;20166;-84
2023/04/07 15:15:49;;;;;;;5.05;4.35;;;12.30;1.00;;;;;;6207475;23;20165;-84
2023/04/07 15:18:15;;;;;;;4.57;3.83;;;12.40;1.00;;;;;;6206513;23;20197;-83
2023/04/07 15:20:41;;;;;;;4.50;3.88;;;12.30;1.00;;;;;;6209320;23;20181;-86
2023/04/07 15:23:07;;;;;;;6.80;5.05;;;12.30;1.00;;;;;;6207738;23;20228;-84
2023/04/07 15:25:32;;;;;;;5.10;4.32;;;12.20;1.00;;;;;;6207282;23;20158;-84
2023/04/07 15:27:58;;;;;;;4.68;4.05;;;12.20;1.00;;;;;;6207616;23;20166;-83
2023/04/07 15:30:23;;;;;;;5.35;4.35;;;12.10;1.00;;;;;;6206304;23;20576;-86
2023/04/07 15:32:56;;;;;;;5.72;4.25;;;12.00;1.00;;;;;;6206506;23;20598;-84
2023/04/07 15:35:22;;;;;;;6.07;4.53;;;12.10;1.00;;;;;;6208009;23;20549;-84
2023/04/07 15:37:47;;;;;;;6.22;4.93;;;12.10;1.00;;;;;;6207081;23;20248;-84
2023/04/07 15:40:13;;;;;;;5.65;4.38;;;12.20;1.00;;;;;;6206978;23;20285;-84
2023/04/07 15:42:39;;;;;;;4.90;4.22;;;12.10;1.00;;;;;;6206987;23;20158;-84
2023/04/07 15:45:06;;;;;;;5.13;4.35;;;12.10;1.00;;;;;;6207432;23;20621;-85
2023/04/07 15:47:32;;;;;;;5.55;4.28;;;12.00;1.00;;;;;;6205174;23;20241;-85
2023/04/07 15:49:58;;;;;;;5.07;4.20;;;11.90;1.00;;;;;;6207020;23;20186;-83
2023/04/07 15:52:24;;;;;;;6.28;4.78;;;12.20;1.00;;;;;;6205832;23;20216;-84
2023/04/07 15:54:49;;;;;;;5.00;4.50;;;12.00;1.00;;;;;;6205708;23;20150;-83
2023/04/07 15:57:15;;;;;;;5.20;4.68;;;11.90;1.00;;;;;;6205262;23;20209;-85
2023/04/07 15:59:41;;;;;;;6.97;4.65;;;11.90;1.00;;;;;;6204409;23;20204;-83
2023/04/07 16:02:07;;;;;;;4.55;4.13;;;11.70;1.00;;;;;;6205674;23;20158;-84
2023/04/07 16:04:32;;;;;;;4.90;4.40;;;11.60;1.00;;;;;;6206216;23;20158;-84
2023/04/07 16:07:00;;;;;;;5.03;4.47;;;11.50;1.00;;;;;;6208089;23;20649;-85
2023/04/07 16:09:27;;;;;;;6.07;4.47;;;11.50;1.00;;;;;;6208146;23;20170;-84
2023/04/07 16:11:53;;;;;;;5.20;4.70;;;11.30;1.00;;;;;;6206154;23;20158;-82
2023/04/07 16:14:19;;;;;;;4.53;4.13;;;11.10;1.00;;;;;;6207049;23;20146;-82
2023/04/07 16:16:45;;;;;;;5.17;4.17;;;10.90;1.00;;;;;;6207290;23;20155;-80
2023/04/07 16:19:10;;;;;;;4.63;4.23;;;10.80;1.00;;;;;;6205051;23;20257;-81
2023/04/07 16:21:38;;;;;;;5.20;4.70;;;10.70;1.00;;;;;;6206765;23;20493;-81
2023/04/07 16:24:04;;;;;;;4.83;4.10;;;11.40;1.00;;;;;;6205365;23;20166;-81
2023/04/07 16:26:29;;;;;;;5.63;4.43;;;10.60;1.00;;;;;;6207730;23;20230;-83
2023/04/07 16:28:55;;;;;;;6.90;6.10;;;10.50;1.00;;;;;;6204099;23;20174;-82
2023/04/07 16:31:20;;;;;;;21.97;18.77;;;10.50;1.00;;;;;;6205360;23;20166;-83
2023/04/07 16:33:46;;;;;;;22.83;20.53;;;10.40;1.00;;;;;;6205458;23;20164;-82
2023/04/07 16:36:11;;;;;;;9.27;8.23;;;10.30;1.00;;;;;;6205227;23;20501;-83
2023/04/07 16:38:37;;;;;;;15.03;13.60;;;10.30;1.00;;;;;;6204812;23;20520;-82
2023/04/07 16:41:05;;;;;;;12.63;11.30;;;10.20;1.00;;;;;;6205325;23;20641;-82
2023/04/07 16:43:31;;;;;;;5.40;4.93;;;10.10;1.00;;;;;;6207113;23;20237;-82
2023/04/07 16:45:58;;;;;;;4.73;4.33;;;10.00;1.00;;;;;;6205595;23;20626;-83
2023/04/07 16:48:24;;;;;;;11.43;10.43;;;9.90;1.00;;;;;;6205390;23;20249;-82
2023/04/07 16:50:49;;;;;;;4.43;4.03;;;9.80;1.00;;;;;;6206756;23;20204;-82
2023/04/07 16:53:15;;;;;;;4.93;4.00;;;9.80;1.00;;;;;;6207741;23;20233;-82
2023/04/07 16:55:41;;;;;;;3.80;3.30;;;9.70;1.00;;;;;;6207209;23;20590;-81
2023/04/07 16:58:06;;;;;;;4.20;3.30;;;9.60;1.00;;;;;;6205344;23;20257;-82
2023/04/07 17:00:32;;;;;;;4.30;3.40;;;9.50;1.00;;;;;;6205096;23;20182;-81
2023/04/07 17:02:57;;;;;;;6.23;4.43;;;9.30;1.00;;;;;;6205751;23;20650;-82
2023/04/07 17:05:23;;;;;;;4.07;3.40;;;9.30;1.00;;;;;;6207447;23;20234;-82
2023/04/07 17:07:49;;;;;;;3.67;3.00;;;9.30;1.00;;;;;;6207097;23;20197;-83
2023/04/07 17:10:14;;;;;;;3.93;3.27;;;9.20;1.00;;;;;;6206659;23;20177;-82
2023/04/07 17:12:40;;;;;;;4.13;3.73;;;9.20;1.00;;;;;;6207292;23;20150;-82
2023/04/07 17:15:06;;;;;;;3.90;3.50;;;9.20;1.00;;;;;;6207723;23;20162;-83
2023/04/07 17:17:31;;;;;;;4.67;3.40;;;9.10;1.00;;;;;;6207513;23;20235;-82
2023/04/07 17:19:58;;;;;;;5.73;4.27;;;9.10;1.00;;;;;;6207145;23;20226;-80
2023/04/07 17:22:24;;;;;;;4.43;3.30;;;9.10;1.00;;;;;;6206091;23;20184;-82
2023/04/07 17:24:50;;;;;;;5.00;3.20;;;9.10;1.00;;;;;;6204908;23;20559;-83
2023/04/07 17:27:17;;;;;;;3.83;3.23;;;9.00;1.00;;;;;;6205136;23;20165;-82
2023/04/07 17:29:42;;;;;;;4.53;3.40;;;9.10;1.00;;;;;;6204000;23;20242;-82
2023/04/07 17:32:08;;;;;;;4.93;3.90;;;9.00;1.00;;;;;;6203386;23;20284;-82
2023/04/07 17:34:33;;;;;;;4.67;3.20;;;9.00;1.00;;;;;;6205346;23;20181;-81
2023/04/07 17:36:59;;;;;;;3.23;2.60;;;9.00;1.00;;;;;;6205268;23;20186;-81
2023/04/07 17:39:25;;;;;;;3.57;3.07;;;9.40;1.00;;;;;;6205372;23;21003;-82
2023/04/07 17:41:51;;;;;;;3.70;3.40;;;9.00;1.00;;;;;;6205488;23;20594;-82
2023/04/07 17:44:16;;;;;;;15.10;11.77;;;8.90;1.00;;;;;;6205399;23;20203;-83
2023/04/07 17:46:42;;;;;;;3.13;2.83;;;8.90;1.00;;;;;;6205566;23;20165;-84
2023/04/07 17:49:07;;;;;;;4.60;2.60;;;8.90;1.00;;;;;;6206655;23;20170;-83
2023/04/07 17:51:33;;;;;;;3.33;2.53;;;9.00;1.00;;;;;;6206032;23;20167;-83
2023/04/07 17:53:59;;;;;;;2.80;2.50;;;8.90;1.00;;;;;;6205288;23;20150;-84
2023/04/07 17:56:25;;;;;;;2.67;2.47;;;8.90;1.00;;;;;;6205088;23;20601;-82
2023/04/07 17:58:50;;;;;;;2.83;2.57;;;8.80;1.00;;;;;;6204417;23;20222;-82
2023/04/07 18:01:16;;;;;;;2.97;2.40;;;8.70;1.00;;;;;;6205449;23;20590;-82
2023/04/07 18:03:42;;;;;;;3.30;2.60;;;8.70;1.00;;;;;;6206876;23;20156;-83
2023/04/07 18:06:08;;;;;;;2.50;2.30;;;8.70;1.00;;;;;;6207539;23;20245;-82
2023/04/07 18:08:34;;;;;;;2.57;2.03;;;8.60;1.00;;;;;;6206805;23;20611;-82
2023/04/07 18:10:59;;;;;;;2.60;2.40;;;9.00;1.00;;;;;;6207320;23;20162;-83
2023/04/07 18:13:25;;;;;;;2.23;2.03;;;8.60;1.00;;;;;;6208690;23;20181;-82
2023/04/07 18:15:51;;;;;;;2.00;1.80;;;8.50;1.00;;;;;;6206745;23;20158;-81
2023/04/07 18:18:18;;;;;;;2.63;1.70;;;8.40;1.00;;;;;;6207160;23;20186;-81
2023/04/07 18:20:44;;;;;;;2.40;2.00;;;8.30;1.00;;;;;;6205312;23;20386;-82
2023/04/07 18:23:09;;;;;;;5.03;3.80;;;8.10;1.00;;;;;;6208419;23;20486;-82
2023/04/07 18:25:35;;;;;;;3.60;2.80;;;8.10;1.00;;;;;;6207328;23;20374;-81
2023/04/07 18:28:01;;;;;;;10.77;8.93;;;8.00;1.00;;;;;;6207776;23;20638;-81
2023/04/07 18:30:27;;;;;;;7.40;5.43;;;7.90;1.00;;;;;;6206525;23;20192;-81
2023/04/07 18:32:52;;;;;;;5.13;4.40;;;7.90;1.00;;;;;;6206983;23;20257;-82
2023/04/07 18:35:18;;;;;;;2.47;2.17;;;7.80;1.00;;;;;;6206804;23;20624;-82
2023/04/07 18:37:43;;;;;;;2.97;2.67;;;7.80;1.00;;;;;;6207945;23;20178;-82
2023/04/07 18:40:09;;;;;;;3.87;3.47;;;7.80;1.00;;;;;;6207568;23;20517;-82
2023/04/07 18:42:35;;;;;;;2.20;2.00;;;7.70;1.00;;;;;;6204052;23;20394;-81
2023/04/07 18:45:01;;;;;;;2.37;1.90;;;7.60;1.00;;;;;;6206016;23;20193;-81
2023/04/07 18:47:28;;;;;;;2.57;2.37;;;7.60;1.00;;;;;;6205768;23;20216;-82
2023/04/07 18:49:56;;;;;;;2.37;2.17;;;7.50;1.00;;;;;;6205672;23;20190;-82
2023/04/07 18:52:23;;;;;;;2.53;2.33;;;7.50;1.00;;;;;;6205457;23;20386;-82
2023/04/07 18:54:48;;;;;;;3.20;2.70;;;7.40;1.00;;;;;;6207850;23;20209;-81
2023/04/07 18:57:14;;;;;;;3.63;3.10;;;7.40;1.00;;;;;;6206334;23;20741;-82
2023/04/07 18:59:39;;;;;;;3.80;2.80;;;7.40;1.00;;;;;;6205628;23;20651;-82
2023/04/07 19:02:05;;;;;;;3.27;2.97;;;7.30;1.00;;;;;;6206493;23;20158;-82
2023/04/07 19:04:30;;;;;;;3.53;3.17;;;7.30;1.00;;;;;;6207843;23;20386;-86
2023/04/07 19:06:56;;;;;;;3.30;3.00;;;7.30;1.00;;;;;;6208686;23;20154;-82
2023/04/07 19:09:22;;;;;;;3.20;2.90;;;7.20;1.00;;;;;;6206078;23;20213;-82
2023/04/07 19:11:47;;;;;;;4.43;3.60;;;7.10;1.00;;;;;;6206436;23;20442;-83
2023/04/07 19:14:13;;;;;;;4.77;3.77;;;7.00;1.00;;;;;;6207535;23;20150;-83
2023/04/07 19:16:39;;;;;;;4.13;3.73;;;7.00;1.00;;;;;;6206974;23;20161;-82
2023/04/07 19:19:04;;;;;;;3.97;3.37;;;7.00;1.00;;;;;;6205467;23;20646;-82
2023/04/07 19:21:30;;;;;;;4.10;3.70;;;6.90;1.00;;;;;;6205737;23;20245;-82
2023/04/07 19:23:58;;;;;;;4.10;3.63;;;6.90;1.00;;;;;;6205383;23;20166;-81
2023/04/07 19:26:28;;;;;;;4.93;4.27;;;6.90;1.00;;;;;;6208734;23;20605;-82
2023/04/07 19:28:55;;;;;;;5.03;4.13;;;6.80;1.00;;;;;;6208329;23;20257;-82
2023/04/07 19:31:21;;;;;;;5.22;4.72;;;6.70;1.00;;;;;;6206738;23;20389;-82
2023/04/07 19:33:47;;;;;;;4.40;4.00;;;6.60;1.00;;;;;;6207263;23;20243;-82
2023/04/07 19:36:13;;;;;;;5.40;4.90;;;6.60;1.00;;;;;;6206022;23;20378;-81
2023/04/07 19:38:38;;;;;;;5.70;5.00;;;6.60;1.00;;;;;;6206213;23;20218;-83
2023/04/07 19:41:04;;;;;;;5.47;4.83;;;6.60;1.00;;;;;;6206567;23;20159;-82
2023/04/07 19:43:30;;;;;;;5.20;4.70;;;6.50;1.00;;;;;;6207886;23;20380;-82
2023/04/07 19:45:56;;;;;;;6.03;5.23;;;6.40;1.00;;;;;;6206761;23;20654;-81
2023/04/07 19:48:22;;;;;;;7.37;5.30;;;6.40;1.00;;;;;;6206284;23;20171;-82
2023/04/07 19:50:48;;;;;;;6.40;5.90;;;6.30;1.00;;;;;;6206900;23;20378;-82
2023/04/07 19:53:17;;;;;;;6.30;5.80;;;6.30;1.00;;;;;;6207051;23;20374;-82
2023/04/07 19:55:46;;;;;;;5.43;4.93;;;6.30;1.00;;;;;;6206662;23;20162;-82
2023/04/07 19:58:12;;;;;;;6.07;5.47;;;6.30;1.00;;;;;;6207178;23;20170;-82
2023/04/07 20:00:38;;;;;;;5.93;5.43;;;6.30;1.00;;;;;;6206756;23;20381;-83